FARRENBERG (FAR1) Information & Weather

WARNING: the data listed below is for informational purposes only and should be confirmed from official sources. Data presented here on this page may be out of date, incomplete or wrong.

Name: FARRENBERG
Identifier: FAR1

Coord: 48.3855N 9.0767E
Var: 1°E

Country: Germany
Municipality: UNKNOWN,
Time Zone: (GMT+01:00) Europe/Berlin

Station Elevation: 2605 ft
Pressure Altitude: 2600 ft
Density Altitude: 3949 ft
Freezing Level: 12201 ft

Civil Twilight
Morning: 02:46 UTC  (03:46 local)
Evening: 20:08 UTC  (21:08 local)

METAR EDDS 040250Z 31001KT CAVOK 19/17 Q1022= [toggle past 4 hours]
(Station: EDDS; distance: 19.2 nm)

TAF EDDS 032300Z 0400/0424 VRB03KT CAVOK PROB30 TEMPO 0414/0417 30009KT -TSRA SCT040CB=
(Station: EDDS; distance: 19.2 nm)

Upper Winds

Source   Valid 375 1000 2000 2500 3000 5000 6000 8000 10000 12000 14000 16000 18000 21000 24000 26000 30000 34000 39000 44000 52000 60000
GFS 0403/0406 1103+25 1103+24 1103+22 1304+22 1806+23 2306+22 2506+18 2605+14 2707+09 2710+04 2613-01 2615-06 2615-11 2814-15 2917-22 2922-29 2924-37 3028-48 3131-58 2814-59 1904-59 1209-57

SIGMET/AIRMET

None within 25nm.

PIREP

None within 25nm.

NOTAM

None within 25nm.

Runway Data

Frequencies

Nearby Airports

Nearby Navaids